createdAt,value
2023-02-08T00:01:13.529Z,4.90
2023-02-08T00:03:40.469Z,5.40
2023-02-08T00:06:07.931Z,4.20
2023-02-08T00:08:35.376Z,7.53
2023-02-08T00:11:02.143Z,5.90
2023-02-08T00:13:29.088Z,5.35
2023-02-08T00:15:56.075Z,4.45
2023-02-08T00:18:23.134Z,6.20
2023-02-08T00:21:12.949Z,4.68
2023-02-08T00:23:40.256Z,8.10
2023-02-08T00:26:07.395Z,5.22
2023-02-08T00:28:34.236Z,4.82
2023-02-08T00:31:01.064Z,4.82
2023-02-08T00:33:28.002Z,5.68
2023-02-08T00:36:06.597Z,5.20
2023-02-08T00:38:33.418Z,5.03
2023-02-08T00:41:00.185Z,6.03
2023-02-08T00:43:26.897Z,6.30
2023-02-08T00:45:57.424Z,4.88
2023-02-08T00:48:25.664Z,5.22
2023-02-08T00:51:08.161Z,5.65
2023-02-08T00:56:02.510Z,4.88
2023-02-08T00:58:29.477Z,5.47
2023-02-08T01:00:56.658Z,6.03
2023-02-08T01:03:24.394Z,5.45
2023-02-08T01:05:51.389Z,5.03
2023-02-08T01:08:19.790Z,6.47
2023-02-08T01:10:47.492Z,4.88
2023-02-08T01:13:14.157Z,6.80
2023-02-08T01:15:40.895Z,6.50
2023-02-08T01:18:07.760Z,5.85
2023-02-08T01:20:36.293Z,6.40
2023-02-08T01:23:04.646Z,6.45
2023-02-08T01:25:32.840Z,5.88
2023-02-08T01:27:59.620Z,7.72
2023-02-08T01:30:26.548Z,5.25
2023-02-08T01:32:53.277Z,6.07
2023-02-08T01:35:19.972Z,6.07
2023-02-08T01:37:46.689Z,7.18
2023-02-08T01:40:13.477Z,5.95
2023-02-08T01:42:40.211Z,6.57
2023-02-08T01:45:16.530Z,8.82
2023-02-08T01:47:45.480Z,6.22
2023-02-08T01:50:13.274Z,5.15
2023-02-08T01:52:42.195Z,7.65
2023-02-08T01:55:31.729Z,6.85
2023-02-08T01:58:03.083Z,6.07
2023-02-08T02:00:31.572Z,5.85
2023-02-08T02:02:58.869Z,5.63
2023-02-08T02:05:30.477Z,6.45
2023-02-08T02:07:59.576Z,5.78
2023-02-08T02:10:32.516Z,7.18
2023-02-08T02:13:04.727Z,5.82
2023-02-08T02:15:32.614Z,6.38
2023-02-08T02:17:59.340Z,6.57
2023-02-08T02:20:44.838Z,6.20
2023-02-08T02:23:40.507Z,6.43
2023-02-08T02:26:29.314Z,6.68
2023-02-08T02:29:18.039Z,6.72
2023-02-08T02:32:09.773Z,5.88
2023-02-08T02:34:39.550Z,6.38
2023-02-08T02:37:57.474Z,6.32
2023-02-08T02:40:51.757Z,6.32
2023-02-08T02:43:42.901Z,6.70
2023-02-08T02:46:28.644Z,5.85
2023-02-08T02:49:07.566Z,5.80
2023-02-08T02:51:45.401Z,7.35
2023-02-08T02:54:25.452Z,6.60
2023-02-08T02:56:56.506Z,7.95
2023-02-08T02:59:23.588Z,5.80
2023-02-08T03:01:50.393Z,7.40
2023-02-08T03:04:32.503Z,7.07
2023-02-08T03:07:20.539Z,8.43
2023-02-08T03:10:33.816Z,6.88
2023-02-08T03:13:31.603Z,5.47
2023-02-08T03:16:34.912Z,7.10
2023-02-08T03:19:32.154Z,7.35
2023-02-08T03:22:01.868Z,8.98
2023-02-08T03:24:48.820Z,8.45
2023-02-08T03:27:38.281Z,6.68
2023-02-08T03:30:36.696Z,8.18
2023-02-08T03:33:10.834Z,6.68
2023-02-08T03:35:42.343Z,7.63
2023-02-08T03:38:24.014Z,7.78
2023-02-08T03:40:53.192Z,8.40
2023-02-08T03:43:33.826Z,7.75
2023-02-08T03:46:25.641Z,8.00
2023-02-08T03:48:57.072Z,7.55
2023-02-08T03:51:24.777Z,7.90
2023-02-08T03:53:53.914Z,8.05
2023-02-08T03:56:26.590Z,8.23
2023-02-08T03:58:59.018Z,7.25
2023-02-08T04:01:47.042Z,7.47
2023-02-08T04:04:15.439Z,8.20
2023-02-08T04:06:42.515Z,8.15
2023-02-08T04:09:09.396Z,9.55
2023-02-08T04:11:36.217Z,8.20
2023-02-08T04:14:02.915Z,8.13
2023-02-08T04:16:29.700Z,8.88
2023-02-08T04:18:56.384Z,9.05
2023-02-08T04:21:23.171Z,8.82
2023-02-08T04:23:49.878Z,7.03
2023-02-08T04:26:16.573Z,9.98
2023-02-08T04:28:43.339Z,9.98
2023-02-08T04:31:10.137Z,7.00
2023-02-08T04:33:36.942Z,7.03
2023-02-08T04:36:03.945Z,8.45
2023-02-08T04:38:31.405Z,8.45
2023-02-08T04:40:58.140Z,9.18
2023-02-08T04:43:25.040Z,9.70
2023-02-08T04:45:52.253Z,7.20
2023-02-08T04:48:19.938Z,7.65
2023-02-08T04:50:46.832Z,7.60
2023-02-08T04:53:13.793Z,9.52
2023-02-08T04:55:40.990Z,8.65
2023-02-08T04:58:07.681Z,8.80
2023-02-08T05:00:34.517Z,8.60
2023-02-08T05:03:01.276Z,8.77
2023-02-08T05:05:28.534Z,7.35
2023-02-08T05:07:55.294Z,9.43
2023-02-08T05:10:22.458Z,7.88
2023-02-08T05:12:49.202Z,8.45
2023-02-08T05:15:16.009Z,7.82
2023-02-08T05:17:42.827Z,9.23
2023-02-08T05:20:10.673Z,8.73
2023-02-08T05:22:37.509Z,9.93
2023-02-08T05:25:04.534Z,7.97
2023-02-08T05:27:31.362Z,7.65
2023-02-08T05:29:59.166Z,7.78
2023-02-08T05:32:26.022Z,7.60
2023-02-08T05:34:52.811Z,8.20
2023-02-08T05:37:19.519Z,8.68
2023-02-08T05:39:46.392Z,8.60
2023-02-08T05:42:13.129Z,8.02
2023-02-08T05:44:39.849Z,9.35
2023-02-08T05:47:06.787Z,8.70
2023-02-08T05:49:33.553Z,10.82
2023-02-08T05:52:00.437Z,9.38
2023-02-08T05:54:27.204Z,8.80
2023-02-08T05:56:53.976Z,10.07
2023-02-08T05:59:20.713Z,7.05
2023-02-08T06:01:47.423Z,8.27
2023-02-08T06:04:14.165Z,9.85
2023-02-08T06:06:41.056Z,8.40
2023-02-08T06:09:07.819Z,8.60
2023-02-08T06:11:36.214Z,7.75
2023-02-08T06:14:03.529Z,6.15
2023-02-08T06:16:30.428Z,8.00
2023-02-08T06:18:57.763Z,7.82
2023-02-08T06:21:24.810Z,6.85
2023-02-08T06:23:51.563Z,6.90
2023-02-08T06:26:18.320Z,6.82
2023-02-08T06:28:45.239Z,6.32
2023-02-08T06:31:11.956Z,7.57
2023-02-08T06:33:38.701Z,6.80
2023-02-08T06:36:05.706Z,7.00
2023-02-08T06:38:32.483Z,7.45
2023-02-08T06:40:59.312Z,7.93
2023-02-08T06:43:26.039Z,8.48
2023-02-08T06:45:52.880Z,9.63
2023-02-08T06:48:19.572Z,10.43
2023-02-08T06:50:46.400Z,9.98
2023-02-08T06:53:13.055Z,9.73
2023-02-08T06:55:39.772Z,10.27
2023-02-08T06:58:06.552Z,11.45
2023-02-08T07:00:33.215Z,11.20
2023-02-08T07:03:00.918Z,10.50
2023-02-08T07:05:27.839Z,10.88
2023-02-08T07:07:54.672Z,8.85
2023-02-08T07:10:21.712Z,7.65
2023-02-08T07:12:48.481Z,8.38
2023-02-08T07:15:15.388Z,11.52
2023-02-08T07:17:42.144Z,8.40
2023-02-08T07:20:11.639Z,8.75
2023-02-08T07:25:07.266Z,6.93
2023-02-08T07:27:34.152Z,7.90
2023-02-08T07:30:01.061Z,9.88
2023-02-08T07:32:27.910Z,6.70
2023-02-08T07:34:54.675Z,8.20
2023-02-08T07:37:21.395Z,7.57
2023-02-08T07:39:48.120Z,7.30
2023-02-08T07:42:14.958Z,8.52
2023-02-08T07:44:53.285Z,9.55
2023-02-08T07:47:20.092Z,9.98
2023-02-08T07:49:46.874Z,9.60
2023-02-08T07:52:13.706Z,11.15
2023-02-08T07:54:40.568Z,11.27
2023-02-08T07:57:08.103Z,11.93
2023-02-08T07:59:34.847Z,9.68
2023-02-08T08:02:01.735Z,9.30
2023-02-08T08:04:28.821Z,10.55
2023-02-08T08:06:55.558Z,11.60
2023-02-08T08:09:24.321Z,10.52
2023-02-08T08:11:51.102Z,10.90
2023-02-08T08:14:17.925Z,11.85
2023-02-08T08:16:44.746Z,10.98
2023-02-08T08:19:11.588Z,9.90
2023-02-08T08:21:38.836Z,10.32
2023-02-08T08:24:05.749Z,10.60
2023-02-08T08:26:32.619Z,10.98
2023-02-08T08:28:59.427Z,9.38
2023-02-08T08:31:26.417Z,8.27
2023-02-08T08:33:53.381Z,8.48
2023-02-08T08:36:20.041Z,10.13
2023-02-08T08:38:46.756Z,5.82
2023-02-08T08:41:18.217Z,8.88
2023-02-08T08:43:45.274Z,8.02
2023-02-08T08:46:12.130Z,4.72
2023-02-08T08:48:39.048Z,4.90
2023-02-08T08:51:06.990Z,5.72
2023-02-08T08:53:34.391Z,5.30
2023-02-08T08:56:01.318Z,5.68
2023-02-08T08:58:28.125Z,6.78
2023-02-08T09:00:58.476Z,8.82
2023-02-08T09:03:25.769Z,8.88
2023-02-08T09:05:52.781Z,10.75
2023-02-08T09:08:19.717Z,8.80
2023-02-08T09:10:46.646Z,8.70
2023-02-08T09:13:19.387Z,9.43
2023-02-08T09:15:47.142Z,11.10
2023-02-08T09:18:14.147Z,11.70
2023-02-08T09:20:41.671Z,10.20
2023-02-08T09:23:08.658Z,10.48
2023-02-08T09:25:36.778Z,10.13
2023-02-08T09:28:04.068Z,11.30
2023-02-08T09:30:30.936Z,11.00
2023-02-08T09:32:57.625Z,11.65
2023-02-08T09:35:24.462Z,10.90
2023-02-08T09:37:58.137Z,9.98
2023-02-08T09:40:28.173Z,7.20
2023-02-08T09:43:13.469Z,7.22
2023-02-08T09:45:58.870Z,7.68
2023-02-08T09:48:35.231Z,7.95
2023-02-08T09:51:16.117Z,7.80
2023-02-08T09:53:47.604Z,8.00
2023-02-08T09:56:17.038Z,9.30
2023-02-08T09:58:46.020Z,9.50
2023-02-08T10:03:53.462Z,7.95
2023-02-08T10:06:21.082Z,9.30
2023-02-08T10:08:50.332Z,10.55
2023-02-08T10:11:32.189Z,9.20
2023-02-08T10:14:08.912Z,9.20
2023-02-08T10:16:44.761Z,8.80
2023-02-08T10:19:25.804Z,7.90
2023-02-08T10:21:52.462Z,7.82
2023-02-08T10:24:28.433Z,8.55
2023-02-08T10:26:57.536Z,8.48
2023-02-08T10:29:30.344Z,8.40
2023-02-08T10:32:14.728Z,8.20
2023-02-08T10:34:51.028Z,8.70
2023-02-08T10:37:25.726Z,8.10
2023-02-08T10:39:55.226Z,8.80
2023-02-08T10:42:23.538Z,6.65
2023-02-08T10:45:29.459Z,9.45
2023-02-08T10:48:06.842Z,7.93
2023-02-08T10:50:40.043Z,7.22
2023-02-08T10:53:09.665Z,8.15
2023-02-08T10:55:38.847Z,8.00
2023-02-08T10:58:06.558Z,8.82
2023-02-08T11:00:46.016Z,6.00
2023-02-08T11:03:16.987Z,6.70
2023-02-08T11:05:45.815Z,7.72
2023-02-08T11:11:03.047Z,5.35
2023-02-08T11:13:42.346Z,6.13
2023-02-08T11:16:23.428Z,4.30
2023-02-08T11:18:53.960Z,6.00
2023-02-08T11:21:29.529Z,6.75
2023-02-08T11:24:00.442Z,6.28
2023-02-08T11:26:38.726Z,5.82
2023-02-08T11:29:13.012Z,5.32
2023-02-08T11:31:42.125Z,7.47
2023-02-08T11:34:11.633Z,6.65
2023-02-08T11:37:02.121Z,9.07
2023-02-08T11:39:43.355Z,8.13
2023-02-08T11:42:21.279Z,6.95
2023-02-08T11:44:52.320Z,7.63
2023-02-08T11:47:25.761Z,7.43
2023-02-08T11:49:54.516Z,7.07
2023-02-08T11:52:26.191Z,6.82
2023-02-08T11:54:54.370Z,7.82
2023-02-08T11:57:23.655Z,6.90
2023-02-08T11:59:52.038Z,7.18
2023-02-08T12:02:35.363Z,6.95
2023-02-08T12:05:03.167Z,7.05
2023-02-08T12:07:29.872Z,7.50
2023-02-08T12:10:15.032Z,6.95
2023-02-08T12:13:01.973Z,5.90
2023-02-08T12:15:57.193Z,6.05
2023-02-08T12:18:33.951Z,6.45
2023-02-08T12:21:25.621Z,4.82
2023-02-08T12:23:56.317Z,5.07
2023-02-08T12:26:53.656Z,5.63
2023-02-08T12:29:48.593Z,5.55
2023-02-08T12:35:03.375Z,6.22
2023-02-08T12:38:04.957Z,6.18
2023-02-08T12:40:49.983Z,5.60
2023-02-08T12:43:40.739Z,4.63
2023-02-08T12:46:45.897Z,5.40
2023-02-08T12:49:21.564Z,5.47
2023-02-08T12:52:04.080Z,6.63
2023-02-08T12:54:37.879Z,5.07
2023-02-08T12:57:06.555Z,4.18
2023-02-08T12:59:38.310Z,5.15
2023-02-08T13:02:29.882Z,4.90
2023-02-08T13:05:00.307Z,4.68
2023-02-08T13:07:31.762Z,4.30
2023-02-08T13:10:12.899Z,4.63
2023-02-08T13:12:46.058Z,4.30
2023-02-08T13:15:24.750Z,6.53
2023-02-08T13:17:59.009Z,5.32
2023-02-08T13:20:53.265Z,5.97
2023-02-08T13:23:26.700Z,6.45
2023-02-08T13:26:02.665Z,6.35
2023-02-08T13:28:29.576Z,3.25
2023-02-08T13:31:07.519Z,3.70
2023-02-08T13:34:00.489Z,3.22
2023-02-08T13:36:37.207Z,3.55
2023-02-08T13:39:07.084Z,3.60
2023-02-08T13:41:34.418Z,3.75
2023-02-08T13:44:05.454Z,5.20
2023-02-08T13:46:46.113Z,3.65
2023-02-08T13:49:50.063Z,3.63
2023-02-08T13:52:47.579Z,5.07
2023-02-08T13:55:33.757Z,4.40
2023-02-08T13:58:15.892Z,4.10
2023-02-08T14:00:54.996Z,3.85
2023-02-08T14:03:25.157Z,4.63
2023-02-08T14:05:59.941Z,4.13
2023-02-08T14:08:39.558Z,4.38
2023-02-08T14:11:37.427Z,4.28
2023-02-08T14:14:18.126Z,4.18
2023-02-08T14:16:47.480Z,4.50
2023-02-08T14:19:20.149Z,3.45
2023-02-08T14:21:49.279Z,4.10
2023-02-08T14:24:26.015Z,5.35
2023-02-08T14:27:17.352Z,5.03
2023-02-08T14:29:44.382Z,3.60
2023-02-08T14:32:23.488Z,4.57
2023-02-08T14:34:59.677Z,5.05
2023-02-08T14:37:29.719Z,5.47
2023-02-08T14:40:28.755Z,4.60
2023-02-08T14:43:00.547Z,6.28
2023-02-08T14:45:40.657Z,5.30
2023-02-08T14:48:26.475Z,11.65
2023-02-08T14:51:11.266Z,7.65
2023-02-08T14:53:53.289Z,4.72
2023-02-08T14:56:29.827Z,8.95
2023-02-08T14:59:09.432Z,5.13
2023-02-08T15:02:11.026Z,4.80
2023-02-08T15:04:45.287Z,5.82
2023-02-08T15:07:14.921Z,6.00
2023-02-08T15:09:43.075Z,5.82
2023-02-08T15:12:16.845Z,6.38
2023-02-08T15:14:43.972Z,5.43
2023-02-08T15:17:24.847Z,6.25
2023-02-08T15:19:52.293Z,5.13
2023-02-08T15:22:25.812Z,5.03
2023-02-08T15:24:59.125Z,5.75
2023-02-08T15:27:29.192Z,5.82
2023-02-08T15:29:56.449Z,5.32
2023-02-08T15:32:25.428Z,4.35
2023-02-08T15:34:55.438Z,4.43
2023-02-08T15:37:22.611Z,3.95
2023-02-08T15:39:55.279Z,4.85
2023-02-08T15:42:25.085Z,4.32
2023-02-08T15:44:52.491Z,5.82
2023-02-08T15:47:25.566Z,4.95
2023-02-08T15:49:53.808Z,3.85
2023-02-08T15:52:26.336Z,3.97
2023-02-08T15:54:53.161Z,3.92
2023-02-08T15:57:35.453Z,4.32
2023-02-08T16:00:07.451Z,5.47
2023-02-08T16:02:35.415Z,6.03
2023-02-08T16:05:10.932Z,4.55
2023-02-08T16:07:40.692Z,5.47
2023-02-08T16:10:10.116Z,5.25
2023-02-08T16:12:36.974Z,5.45
2023-02-08T16:15:03.988Z,5.15
2023-02-08T16:17:42.808Z,5.45
2023-02-08T16:20:21.807Z,5.88
2023-02-08T16:22:57.638Z,5.60
2023-02-08T16:25:45.132Z,6.38
2023-02-08T16:28:38.228Z,7.68
2023-02-08T16:31:06.075Z,14.13
2023-02-08T16:33:33.205Z,12.65
2023-02-08T16:36:03.294Z,13.57
2023-02-08T16:38:31.762Z,6.25
2023-02-08T16:41:12.118Z,6.13
2023-02-08T16:43:44.055Z,5.75
2023-02-08T16:46:10.930Z,5.75
2023-02-08T16:48:58.024Z,6.53
2023-02-08T16:51:27.017Z,6.85
2023-02-08T16:54:02.465Z,7.60
2023-02-08T16:56:29.307Z,6.43
2023-02-08T16:58:56.046Z,5.57
2023-02-08T17:01:24.338Z,5.72
2023-02-08T17:03:53.000Z,6.68
2023-02-08T17:06:33.008Z,7.28
2023-02-08T17:09:01.746Z,6.80
2023-02-08T17:11:29.385Z,6.75
2023-02-08T17:13:58.360Z,7.90
2023-02-08T17:16:27.461Z,6.70
2023-02-08T17:18:54.597Z,6.68
2023-02-08T17:21:21.572Z,6.85
2023-02-08T17:23:48.566Z,6.93
2023-02-08T17:26:42.729Z,8.27
2023-02-08T17:29:11.888Z,7.85
2023-02-08T17:31:39.531Z,7.88
2023-02-08T17:34:06.314Z,10.20
2023-02-08T17:36:36.029Z,11.18
2023-02-08T17:39:05.252Z,11.75
2023-02-08T17:41:32.004Z,10.10
2023-02-08T17:43:58.781Z,9.63
2023-02-08T17:46:27.474Z,9.13
2023-02-08T17:48:54.625Z,7.43
2023-02-08T17:51:23.469Z,8.02
2023-02-08T17:53:50.921Z,7.38
2023-02-08T17:56:20.511Z,8.60
2023-02-08T18:01:23.136Z,6.47
2023-02-08T18:03:51.685Z,7.90
2023-02-08T18:06:19.129Z,7.45
2023-02-08T18:08:46.090Z,6.35
2023-02-08T18:11:18.938Z,8.73
2023-02-08T18:13:51.246Z,8.85
2023-02-08T18:16:26.485Z,7.63
2023-02-08T18:18:59.412Z,7.25
2023-02-08T18:21:26.368Z,8.55
2023-02-08T18:23:53.485Z,8.50
2023-02-08T18:26:22.331Z,12.05
2023-02-08T18:28:49.200Z,8.80
2023-02-08T18:31:20.106Z,11.20
2023-02-08T18:33:48.242Z,13.15
2023-02-08T18:36:16.233Z,9.95
2023-02-08T18:38:47.809Z,11.73
2023-02-08T18:41:21.341Z,11.57
2023-02-08T18:43:48.474Z,11.38
2023-02-08T18:46:18.418Z,10.30
2023-02-08T18:48:45.816Z,12.70
2023-02-08T18:51:14.605Z,10.18
2023-02-08T18:53:42.753Z,10.38
2023-02-08T18:56:11.143Z,11.68
2023-02-08T18:58:38.114Z,12.10
2023-02-08T19:01:13.641Z,8.90
2023-02-08T19:03:40.905Z,8.90
2023-02-08T19:06:21.214Z,7.85
2023-02-08T19:08:49.941Z,5.00
2023-02-08T19:11:24.802Z,7.75
2023-02-08T19:13:52.998Z,7.45
2023-02-08T19:16:22.193Z,7.07
2023-02-08T19:18:49.342Z,10.00
2023-02-08T19:21:17.420Z,8.48
2023-02-08T19:23:54.264Z,9.40
2023-02-08T19:26:26.003Z,7.88
2023-02-08T19:28:54.345Z,4.70
2023-02-08T19:31:22.627Z,11.18
2023-02-08T19:33:51.084Z,9.15
2023-02-08T19:36:23.226Z,8.07
2023-02-08T19:38:50.553Z,8.85
2023-02-08T19:41:23.100Z,3.55
2023-02-08T19:43:50.140Z,5.70
2023-02-08T19:46:20.243Z,4.80
2023-02-08T19:48:47.069Z,6.10
2023-02-08T19:51:13.948Z,2.53
2023-02-08T19:53:40.696Z,3.47
2023-02-08T19:56:15.623Z,4.38
2023-02-08T19:58:42.900Z,3.05
2023-02-08T20:01:15.411Z,3.75
2023-02-08T20:03:42.280Z,4.85
2023-02-08T20:06:19.206Z,4.97
2023-02-08T20:08:46.227Z,4.35
2023-02-08T20:11:18.372Z,4.43
2023-02-08T20:13:45.339Z,8.75
2023-02-08T20:16:12.567Z,6.10
2023-02-08T20:18:39.370Z,6.00
2023-02-08T20:21:06.837Z,7.38
2023-02-08T20:23:33.660Z,4.50
2023-02-08T20:26:16.799Z,6.25
2023-02-08T20:28:46.210Z,5.03
2023-02-08T20:31:21.982Z,5.63
2023-02-08T20:33:49.095Z,5.05
2023-02-08T20:36:18.658Z,5.20
2023-02-08T20:38:45.593Z,4.97
2023-02-08T20:41:14.366Z,5.80
2023-02-08T20:43:42.617Z,6.10
2023-02-08T20:46:12.860Z,2.90
2023-02-08T20:48:39.818Z,3.10
2023-02-08T20:51:11.686Z,3.47
2023-02-08T20:53:40.161Z,5.45
2023-02-08T20:56:13.393Z,6.78
2023-02-08T20:58:40.325Z,6.50
2023-02-08T21:01:12.685Z,6.55
2023-02-08T21:03:39.971Z,5.15
2023-02-08T21:06:23.085Z,3.90
2023-02-08T21:08:54.425Z,4.82
2023-02-08T21:11:23.549Z,3.10
2023-02-08T21:13:50.734Z,4.57
2023-02-08T21:16:18.064Z,4.93
2023-02-08T21:18:45.710Z,3.90
2023-02-08T21:21:13.355Z,4.53
2023-02-08T21:23:40.033Z,4.80
2023-02-08T21:26:07.466Z,5.53
2023-02-08T21:28:34.954Z,4.20
2023-02-08T21:31:07.996Z,3.55
2023-02-08T21:33:34.992Z,5.25
2023-02-08T21:36:08.681Z,5.53
2023-02-08T21:38:35.461Z,5.63
2023-02-08T21:41:15.681Z,6.50
2023-02-08T21:43:42.697Z,8.85
2023-02-08T21:46:10.057Z,9.23
2023-02-08T21:48:55.881Z,5.90
2023-02-08T21:51:42.646Z,7.03
2023-02-08T21:54:33.752Z,10.27
2023-02-08T21:57:05.758Z,8.05
2023-02-08T21:59:37.264Z,6.78
2023-02-08T22:02:10.255Z,5.30
2023-02-08T22:04:37.317Z,4.90
2023-02-08T22:07:07.229Z,7.20
2023-02-08T22:09:35.976Z,6.32
2023-02-08T22:12:02.914Z,6.32
2023-02-08T22:14:29.666Z,4.55
2023-02-08T22:16:56.448Z,6.70
2023-02-08T22:19:23.204Z,4.95
2023-02-08T22:21:49.915Z,7.13
2023-02-08T22:24:16.701Z,8.52
2023-02-08T22:26:44.091Z,5.00
2023-02-08T22:29:10.833Z,4.03
2023-02-08T22:31:38.144Z,5.80
2023-02-08T22:34:05.172Z,4.55
2023-02-08T22:36:31.888Z,4.50
2023-02-08T22:38:58.636Z,4.63
2023-02-08T22:41:25.384Z,3.00
2023-02-08T22:43:54.293Z,4.05
2023-02-08T22:46:21.313Z,4.80
2023-02-08T22:48:48.152Z,4.43
2023-02-08T22:51:17.886Z,3.65
2023-02-08T22:53:45.531Z,3.63
2023-02-08T22:56:16.903Z,3.85
2023-02-08T22:58:43.826Z,3.78
2023-02-08T23:01:12.597Z,7.70
2023-02-08T23:03:39.583Z,4.53
2023-02-08T23:06:08.107Z,4.45
2023-02-08T23:08:35.987Z,4.78
2023-02-08T23:11:04.804Z,4.35
2023-02-08T23:13:32.177Z,2.75
2023-02-08T23:15:59.424Z,3.88
2023-02-08T23:18:26.492Z,3.63
2023-02-08T23:20:54.630Z,3.53
2023-02-08T23:23:21.841Z,3.47
2023-02-08T23:25:48.819Z,4.05
2023-02-08T23:28:15.718Z,3.03
2023-02-08T23:30:43.705Z,4.07
2023-02-08T23:33:10.795Z,3.15
2023-02-08T23:35:41.797Z,3.42
2023-02-08T23:38:09.505Z,3.40
2023-02-08T23:40:36.414Z,4.95
2023-02-08T23:43:03.141Z,3.22
2023-02-08T23:45:29.968Z,4.45
2023-02-08T23:47:56.695Z,4.93
2023-02-08T23:50:25.121Z,4.53
2023-02-08T23:52:52.004Z,3.15
2023-02-08T23:55:18.754Z,3.97
2023-02-08T23:57:45.460Z,5.50
